Time;durP1;ratioP1;P1;durP2;ratioP2;P2;SDS_P1;SDS_P2;PMS_P1;PMS_P2;Temp;Humidity;BMP_temperature;BMP_pressure;BME280_temperature;BME280_humidity;BME280_pressure;Samples;Min_cycle;Max_cycle;Signal;HPM_P1;HPM_P2
2022/03/30 00:00:24;;;;;;;51.63;30.17;;;;;;;4.42;100.00;98713.88;5027759;28;20042;-50
2022/03/30 00:03:08;;;;;;;60.05;31.35;;;;;;;4.41;100.00;98722.50;5026623;28;20045;-50
2022/03/30 00:05:52;;;;;;;55.13;30.42;;;;;;;4.39;100.00;98708.75;5027960;28;20472;-50
2022/03/30 00:08:37;;;;;;;47.30;28.83;;;;;;;4.43;100.00;98720.75;5027539;28;20045;-50
2022/03/30 00:11:22;;;;;;;56.22;31.75;;;;;;;4.42;100.00;98713.88;5027673;28;20184;-50
2022/03/30 00:14:06;;;;;;;77.47;35.85;;;;;;;4.44;100.00;98712.09;5028279;28;20041;-50
2022/03/30 00:16:51;;;;;;;87.30;41.00;;;;;;;4.45;100.00;98707.75;5026355;28;20049;-50
2022/03/30 00:19:36;;;;;;;101.97;43.60;;;;;;;4.48;100.00;98707.69;5027079;28;20407;-50
2022/03/30 00:22:20;;;;;;;77.70;36.70;;;;;;;4.51;100.00;98709.38;5027476;28;20053;-50
2022/03/30 00:25:07;;;;;;;59.65;31.02;;;;;;;4.52;100.00;98701.59;5026274;28;20045;-50
2022/03/30 00:27:52;;;;;;;55.00;30.65;;;;;;;4.51;100.00;98706.78;5027520;28;20065;-50
2022/03/30 00:30:36;;;;;;;60.08;32.15;;;;;;;4.49;100.00;98701.66;5026310;28;20045;-50
2022/03/30 00:33:21;;;;;;;48.33;28.73;;;;;;;4.50;100.00;98703.34;5027486;28;20088;-50
2022/03/30 00:36:06;;;;;;;50.65;28.48;;;;;;;4.43;100.00;98705.19;5027395;28;20049;-50
2022/03/30 00:38:50;;;;;;;50.25;30.40;;;;;;;4.44;100.00;98706.06;5027022;28;20045;-50
2022/03/30 00:41:35;;;;;;;54.80;31.02;;;;;;;4.42;100.00;98698.31;5027053;28;20483;-50
2022/03/30 00:44:20;;;;;;;52.03;30.65;;;;;;;4.43;100.00;98699.16;5027315;28;20049;-50
2022/03/30 00:47:15;;;;;;;64.90;33.55;;;;;;;4.39;100.00;98694.94;5027137;28;20526;-50
2022/03/30 00:49:59;;;;;;;70.55;34.22;;;;;;;4.39;100.00;98695.78;5025495;28;20087;-50
2022/03/30 00:52:50;;;;;;;84.60;39.28;;;;;;;4.33;100.00;98684.66;5026805;28;20373;-50
2022/03/30 00:55:35;;;;;;;91.20;40.00;;;;;;;4.35;100.00;98688.06;5024870;28;20041;-50
2022/03/30 00:58:25;;;;;;;84.85;39.88;;;;;;;4.38;100.00;98690.59;5027488;28;20692;-50
2022/03/30 01:01:11;;;;;;;90.20;42.17;;;;;;;4.34;100.00;98684.63;5026972;28;20041;-49
2022/03/30 01:03:56;;;;;;;83.38;39.25;;;;;;;4.33;100.00;98688.09;5025772;28;20057;-50
2022/03/30 01:06:41;;;;;;;79.28;36.13;;;;;;;4.36;100.00;98688.03;5027008;28;20415;-50
2022/03/30 01:09:26;;;;;;;64.28;35.20;;;;;;;4.34;100.00;98686.34;5026842;28;20041;-50
2022/03/30 01:12:11;;;;;;;72.30;33.70;;;;;;;4.32;100.00;98696.78;5026785;28;20053;-50
2022/03/30 01:14:55;;;;;;;51.88;29.00;;;;;;;4.38;100.00;98690.59;5026210;28;20045;-50
2022/03/30 01:17:40;;;;;;;57.58;32.35;;;;;;;4.36;100.00;98693.22;5025951;28;20497;-50
2022/03/30 01:20:26;;;;;;;55.38;31.27;;;;;;;4.32;100.00;98680.34;5026627;28;20045;-50
2022/03/30 01:23:10;;;;;;;62.75;28.83;;;;;;;4.32;100.00;98680.34;5026829;28;20045;-50
2022/03/30 01:25:55;;;;;;;54.65;29.13;;;;;;;4.31;100.00;98689.00;5025732;28;20045;-50
2022/03/30 01:28:39;;;;;;;59.83;32.95;;;;;;;4.28;100.00;98681.28;5025101;28;20073;-50
2022/03/30 01:34:27;;;;;;;61.55;33.00;;;;;;;4.25;100.00;98676.16;5025896;28;20053;-50
2022/03/30 01:37:14;;;;;;;72.68;34.92;;;;;;;4.19;100.00;98677.97;5025744;28;20492;-50
2022/03/30 01:40:01;;;;;;;86.85;39.58;;;;;;;4.16;100.00;98669.38;5026389;28;20045;-50
2022/03/30 01:42:45;;;;;;;89.75;39.05;;;;;;;4.06;100.00;98675.59;5025349;28;20053;-50
2022/03/30 01:45:29;;;;;;;98.22;41.95;;;;;;;4.12;100.00;98675.50;5026399;28;20561;-50
2022/03/30 01:48:14;;;;;;;78.70;36.05;;;;;;;4.09;100.00;98673.81;5024062;28;20046;-49
2022/03/30 01:50:59;;;;;;;62.88;32.78;;;;;;;4.05;100.00;98666.13;5025932;28;20069;-50
2022/03/30 01:53:44;;;;;;;57.05;30.08;;;;;;;3.97;100.00;98659.34;5025166;28;20045;-50
2022/03/30 01:56:28;;;;;;;54.08;30.25;;;;;;;3.97;100.00;98664.53;5026296;28;20041;-50
2022/03/30 01:59:14;;;;;;;52.97;29.88;;;;;;;3.90;100.00;98649.09;5025486;28;20041;-50
2022/03/30 02:01:58;;;;;;;49.45;28.15;;;;;;;3.89;100.00;98649.97;5025218;28;20467;-50
2022/03/30 02:04:43;;;;;;;52.08;29.05;;;;;;;3.77;100.00;98650.16;5024770;28;20512;-50
2022/03/30 02:07:29;;;;;;;53.50;29.67;;;;;;;3.58;100.00;98652.22;5025972;28;20156;-50
2022/03/30 02:10:14;;;;;;;54.65;29.63;;;;;;;3.63;100.00;98658.16;5025656;28;20114;-50
2022/03/30 02:12:59;;;;;;;52.58;28.17;;;;;;;3.60;100.00;98637.50;5024287;28;20151;-50
2022/03/30 02:15:44;;;;;;;53.67;30.00;;;;;;;3.55;100.00;98650.53;5024984;28;20053;-50
2022/03/30 02:18:28;;;;;;;56.35;32.05;;;;;;;3.39;100.00;98641.28;5024899;28;20810;-50
2022/03/30 02:21:15;;;;;;;59.88;30.73;;;;;;;3.44;100.00;98642.03;5024816;28;20045;-50
2022/03/30 02:24:00;;;;;;;52.33;29.42;;;;;;;3.38;100.00;98643.00;5024897;28;20081;-50
2022/03/30 02:26:47;;;;;;;53.70;30.40;;;;;;;3.49;100.00;98646.28;5025082;28;20053;-50
2022/03/30 02:29:31;;;;;;;49.17;28.40;;;;;;;3.50;100.00;98645.38;5025055;28;20456;-50
2022/03/30 02:32:16;;;;;;;52.70;29.80;;;;;;;3.41;100.00;98642.97;5025199;28;20049;-50
2022/03/30 02:35:00;;;;;;;52.30;29.27;;;;;;;3.47;100.00;98632.50;5025521;28;20061;-50
2022/03/30 02:37:45;;;;;;;51.65;29.90;;;;;;;3.48;100.00;98638.56;5026359;28;20053;-50
2022/03/30 02:40:29;;;;;;;58.65;32.50;;;;;;;3.41;100.00;98632.59;5025432;28;20045;-50
2022/03/30 02:43:16;;;;;;;55.75;31.55;;;;;;;3.47;100.00;98627.31;5024846;28;20385;-50
2022/03/30 02:46:01;;;;;;;55.10;31.38;;;;;;;3.47;100.00;98637.66;5024573;28;20062;-49
2022/03/30 02:48:46;;;;;;;60.85;33.30;;;;;;;3.36;100.00;98633.53;5024249;28;20045;-50
2022/03/30 02:51:30;;;;;;;52.67;30.02;;;;;;;3.36;100.00;98642.16;5025209;28;20071;-49
2022/03/30 02:54:14;;;;;;;54.35;31.83;;;;;;;3.28;100.00;98650.03;5023958;28;20072;-49
2022/03/30 02:56:59;;;;;;;54.90;30.70;;;;;;;3.28;100.00;98638.81;5022984;28;20516;-50
2022/03/30 02:59:44;;;;;;;52.03;29.58;;;;;;;3.32;100.00;98643.09;5025885;28;20850;-49
2022/03/30 03:02:28;;;;;;;57.20;32.35;;;;;;;3.29;100.00;98640.53;5023617;28;20049;-50
2022/03/30 03:05:13;;;;;;;58.85;30.65;;;;;;;3.18;100.00;98647.59;5024393;28;20963;-50
2022/03/30 03:07:59;;;;;;;58.40;31.58;;;;;;;3.20;100.00;98646.69;5024769;28;20664;-50
2022/03/30 03:10:46;;;;;;;55.50;30.05;;;;;;;3.16;100.00;98645.03;5025430;28;20053;-50
2022/03/30 03:13:30;;;;;;;51.80;29.33;;;;;;;3.04;100.00;98642.59;5025113;28;20472;-50
2022/03/30 03:16:15;;;;;;;49.45;27.60;;;;;;;3.12;100.00;98638.19;5023241;28;20054;-50
2022/03/30 03:18:59;;;;;;;51.17;28.50;;;;;;;3.08;100.00;98640.81;5023136;28;20065;-50
2022/03/30 03:21:44;;;;;;;47.80;27.77;;;;;;;3.06;100.00;98633.09;5025002;28;20049;-50
2022/03/30 03:24:28;;;;;;;51.17;29.33;;;;;;;3.00;100.00;98638.34;5026271;28;20045;-50
2022/03/30 03:27:13;;;;;;;50.67;27.35;;;;;;;2.75;100.00;98636.06;5025277;28;20049;-50
2022/03/30 03:29:57;;;;;;;52.97;29.13;;;;;;;2.72;100.00;98636.09;5024930;28;20045;-50
2022/03/30 03:32:42;;;;;;;50.38;27.42;;;;;;;2.75;100.00;98628.31;5025898;28;20049;-50
2022/03/30 03:35:27;;;;;;;47.30;27.45;;;;;;;2.68;100.00;98626.69;5026800;28;20188;-50
2022/03/30 03:38:11;;;;;;;51.35;28.75;;;;;;;2.56;100.00;98622.50;5026251;28;20042;-50
2022/03/30 03:40:56;;;;;;;46.85;27.55;;;;;;;2.49;100.00;98628.59;5026602;28;20136;-50
2022/03/30 03:43:40;;;;;;;52.75;28.20;;;;;;;2.41;100.00;98627.84;5026443;28;20045;-50
2022/03/30 03:46:25;;;;;;;53.10;28.15;;;;;;;2.27;100.00;98633.16;5025633;28;20136;-50
2022/03/30 03:49:09;;;;;;;50.75;27.98;;;;;;;2.20;100.00;98641.00;5026760;28;20480;-50
2022/03/30 03:51:53;;;;;;;50.83;28.40;;;;;;;2.10;100.00;98635.06;5027994;28;20060;-50
2022/03/30 03:54:38;;;;;;;54.45;30.73;;;;;;;1.90;100.00;98639.56;5030225;28;20068;-50
2022/03/30 03:57:23;;;;;;;51.97;27.70;;;;;;;1.79;100.00;98632.75;5029762;28;20049;-50
2022/03/30 04:00:09;;;;;;;51.55;28.60;;;;;;;1.79;100.00;98635.34;5028714;28;20045;-50
2022/03/30 04:02:57;;;;;;;51.92;27.98;;;;;;;1.71;100.00;98631.94;5030096;28;20132;-50
2022/03/30 04:05:41;;;;;;;49.70;28.33;;;;;;;1.62;100.00;98638.03;5029420;28;20049;-50
2022/03/30 04:08:26;;;;;;;52.90;28.73;;;;;;;1.51;100.00;98639.00;5029739;28;20037;-50
2022/03/30 04:11:11;;;;;;;55.80;28.83;;;;;;;1.42;100.00;98645.06;5030799;28;20052;-50
2022/03/30 04:13:55;;;;;;;52.20;28.48;;;;;;;1.42;100.00;98633.91;5029948;28;20069;-50
2022/03/30 04:16:40;;;;;;;52.88;28.73;;;;;;;1.38;100.00;98636.50;5030095;28;20037;-49
2022/03/30 04:19:25;;;;;;;55.40;28.85;;;;;;;1.32;100.00;98625.38;5028992;28;20053;-50
2022/03/30 04:22:10;;;;;;;49.85;28.08;;;;;;;1.31;100.00;98634.84;5029297;28;20061;-49
2022/03/30 04:24:54;;;;;;;58.22;29.80;;;;;;;1.22;100.00;98634.03;5029327;28;20480;-50
2022/03/30 04:27:50;;;;;;;57.03;30.70;;;;;;;1.12;100.00;98635.81;5029703;28;20558;-49
2022/03/30 04:30:34;;;;;;;47.25;27.95;;;;;;;1.09;100.00;98634.09;5029483;28;20042;-49
2022/03/30 04:33:19;;;;;;;51.08;27.55;;;;;;;1.04;100.00;98624.66;5028819;28;20053;-49
2022/03/30 04:36:05;;;;;;;51.00;27.33;;;;;;;1.06;100.00;98626.38;5027740;28;20045;-50
2022/03/30 04:38:50;;;;;;;53.17;25.92;;;;;;;1.04;100.00;98630.72;5028891;28;20053;-49
2022/03/30 04:41:34;;;;;;;47.63;27.10;;;;;;;1.01;100.00;98627.25;5027986;28;20050;-50
2022/03/30 04:44:21;;;;;;;53.58;28.55;;;;;;;1.01;100.00;98632.41;5026972;28;20049;-49
2022/03/30 04:47:06;;;;;;;53.45;28.90;;;;;;;1.00;100.00;98633.28;5025184;28;20053;-49
2022/03/30 04:49:50;;;;;;;54.53;29.20;;;;;;;0.86;100.00;98615.31;5025227;28;20091;-49
2022/03/30 04:52:34;;;;;;;61.70;29.80;;;;;;;0.98;100.00;98635.03;5026679;28;20084;-49
2022/03/30 04:55:19;;;;;;;55.88;27.80;;;;;;;0.97;100.00;98638.47;5025857;28;20770;-49
2022/03/30 04:58:04;;;;;;;54.08;28.30;;;;;;;1.01;100.00;98630.72;5026084;28;20053;-50
2022/03/30 05:00:49;;;;;;;53.83;29.35;;;;;;;1.04;100.00;98637.56;5026272;28;20053;-50
2022/03/30 05:03:33;;;;;;;54.65;28.17;;;;;;;1.07;100.00;98633.28;5025430;28;20053;-49
2022/03/30 05:06:18;;;;;;;52.65;28.15;;;;;;;1.12;100.00;98643.53;5026051;28;20049;-49
2022/03/30 05:09:02;;;;;;;55.05;28.30;;;;;;;1.09;100.00;98622.94;5026282;28;20053;-50
2022/03/30 05:11:47;;;;;;;53.75;27.92;;;;;;;1.20;100.00;98631.44;5026723;28;20068;-50
2022/03/30 05:14:32;;;;;;;51.33;30.45;;;;;;;1.21;100.00;98628.03;5025901;28;20042;-49
2022/03/30 05:17:17;;;;;;;61.42;31.35;;;;;;;1.38;100.00;98641.66;5026116;28;20053;-49
2022/03/30 05:20:02;;;;;;;71.00;38.17;;;;;;;1.41;100.00;98635.63;5026828;28;20045;-50
2022/03/30 05:22:47;;;;;;;74.03;42.72;;;;;;;1.52;100.00;98630.38;5026545;28;20046;-50
2022/03/30 05:25:31;;;;;;;79.20;41.67;;;;;;;1.53;100.00;98642.44;5025855;28;20443;-50
2022/03/30 05:28:16;;;;;;;70.30;39.28;;;;;;;1.75;100.00;98636.22;5026207;28;20053;-50
2022/03/30 05:31:00;;;;;;;66.57;37.83;;;;;;;1.95;100.00;98641.25;5023059;28;20053;-50
2022/03/30 05:33:44;;;;;;;67.10;36.80;;;;;;;2.42;100.00;98652.81;5024073;28;20119;-50
2022/03/30 05:36:29;;;;;;;67.35;38.08;;;;;;;2.70;100.00;98648.22;5025621;28;20144;-50
2022/03/30 05:39:14;;;;;;;64.70;36.72;;;;;;;2.93;100.00;98647.94;5024755;28;20042;-50
2022/03/30 05:41:58;;;;;;;60.60;33.83;;;;;;;3.22;100.00;98649.28;5025462;28;20057;-50
2022/03/30 05:44:43;;;;;;;62.70;35.30;;;;;;;3.26;100.00;98645.75;5025971;28;20033;-50
2022/03/30 05:47:28;;;;;;;64.88;37.00;;;;;;;3.69;100.00;98643.38;5026230;28;20531;-50
2022/03/30 05:50:13;;;;;;;64.18;35.92;;;;;;;3.95;100.00;98642.97;5026253;28;20045;-50
2022/03/30 05:52:58;;;;;;;56.97;33.78;;;;;;;4.30;100.00;98644.09;5025424;28;20047;-50
2022/03/30 05:55:46;;;;;;;55.67;32.38;;;;;;;4.37;100.00;98643.09;5025593;28;20037;-50
2022/03/30 05:58:30;;;;;;;56.05;32.58;;;;;;;4.64;100.00;98643.44;5026031;28;20049;-50
2022/03/30 06:01:15;;;;;;;62.67;33.80;;;;;;;4.79;100.00;98643.13;5026243;28;20365;-50
2022/03/30 06:03:59;;;;;;;52.75;31.35;;;;;;;5.08;100.00;98642.53;5025769;28;20049;-50
2022/03/30 06:06:43;;;;;;;51.42;31.30;;;;;;;5.24;100.00;98631.84;5025701;28;20057;-50
2022/03/30 06:09:28;;;;;;;53.33;33.13;;;;;;;5.30;100.00;98642.94;5025634;28;20045;-51
2022/03/30 06:12:12;;;;;;;54.75;33.88;;;;;;;5.32;100.00;98646.31;5026069;28;20049;-51
2022/03/30 06:14:57;;;;;;;64.43;35.97;;;;;;;5.34;100.00;98638.53;5026106;28;20053;-50
2022/03/30 06:17:42;;;;;;;59.00;34.42;;;;;;;6.06;100.00;98642.88;5025078;28;20496;-51
2022/03/30 06:20:26;;;;;;;57.85;34.42;;;;;;;6.39;100.00;98647.25;5026379;28;20049;-50
2022/03/30 06:23:11;;;;;;;53.78;32.92;;;;;;;6.73;100.00;98648.06;5027823;28;20123;-51
2022/03/30 06:25:55;;;;;;;58.25;34.70;;;;;;;6.98;100.00;98642.97;5027072;28;20387;-50
2022/03/30 06:28:40;;;;;;;58.75;35.95;;;;;;;7.11;100.00;98648.69;5026411;28;20042;-50
2022/03/30 06:31:24;;;;;;;60.55;35.22;;;;;;;7.44;100.00;98643.38;5026838;28;20684;-51
2022/03/30 06:34:08;;;;;;;58.10;33.28;;;;;;;7.67;100.00;98640.03;5026628;28;20049;-50
2022/03/30 06:36:53;;;;;;;57.15;35.13;;;;;;;7.67;100.00;98642.63;5026281;28;20071;-51
2022/03/30 06:39:37;;;;;;;57.15;33.55;;;;;;;8.17;100.00;98641.00;5027062;28;20042;-51
2022/03/30 06:42:21;;;;;;;57.05;34.28;;;;;;;8.16;100.00;98628.88;5026579;28;20128;-50
2022/03/30 06:45:07;;;;;;;59.45;33.45;;;;;;;8.65;100.00;98635.03;5026270;28;20609;-51
2022/03/30 06:47:51;;;;;;;56.13;33.53;;;;;;;8.97;100.00;98632.13;5026676;28;20041;-51
2022/03/30 06:50:36;;;;;;;55.97;33.75;;;;;;;9.42;100.00;98639.13;5027361;28;20464;-51
2022/03/30 06:53:20;;;;;;;53.45;33.13;;;;;;;9.92;100.00;98636.28;5026735;28;20053;-51
2022/03/30 06:56:05;;;;;;;59.15;41.88;;;;;;;10.34;100.00;98640.69;5027270;28;20053;-51
2022/03/30 06:58:50;;;;;;;63.65;39.78;;;;;;;10.43;100.00;98640.28;5023735;28;20050;-51
2022/03/30 07:01:34;;;;;;;56.10;36.42;;;;;;;10.90;100.00;98639.97;5027402;28;20045;-50
2022/03/30 07:04:19;;;;;;;57.38;37.35;;;;;;;11.00;100.00;98634.25;5026971;28;20041;-50
2022/03/30 07:10:17;;;;;;;47.42;29.90;;;;;;;11.15;100.00;98634.47;5025967;28;20045;-51
2022/03/30 07:13:03;;;;;;;49.63;28.75;;;;;;;11.38;100.00;98634.25;5027665;28;20123;-51
2022/03/30 07:15:48;;;;;;;44.28;28.25;;;;;;;11.50;100.00;98638.06;5026191;28;20053;-51
2022/03/30 07:18:33;;;;;;;48.42;27.88;;;;;;;11.52;96.84;98640.63;5027078;28;20550;-51
2022/03/30 07:21:17;;;;;;;53.13;29.77;;;;;;;11.50;99.63;98632.81;5027377;28;20037;-51
2022/03/30 07:24:01;;;;;;;45.92;27.60;;;;;;;11.74;96.32;98638.69;5024317;28;20057;-50
2022/03/30 07:26:46;;;;;;;47.42;27.27;;;;;;;11.85;94.47;98633.78;5028219;28;20103;-51
2022/03/30 07:29:31;;;;;;;48.97;25.88;;;;;;;11.36;93.01;98637.88;5029423;28;20037;-51
2022/03/30 07:32:15;;;;;;;45.63;26.80;;;;;;;11.61;93.17;98634.94;5031383;28;20045;-51
2022/03/30 07:35:00;;;;;;;45.30;24.58;;;;;;;11.23;91.73;98638.44;5030833;28;20053;-51
2022/03/30 07:37:45;;;;;;;33.28;20.80;;;;;;;11.57;92.27;98628.13;5030837;28;20186;-50
2022/03/30 07:40:31;;;;;;;31.20;18.67;;;;;;;12.03;88.21;98634.66;5029797;28;20053;-51
2022/03/30 07:43:17;;;;;;;35.60;20.30;;;;;;;12.25;88.71;98639.69;5030883;28;20045;-51
2022/03/30 07:46:02;;;;;;;28.63;17.40;;;;;;;12.48;86.51;98638.53;5029706;28;20380;-51
2022/03/30 07:48:46;;;;;;;29.15;16.92;;;;;;;12.82;76.24;98637.63;5030900;28;20628;-51
2022/03/30 07:51:31;;;;;;;28.45;16.60;;;;;;;13.20;75.42;98633.88;5028685;28;20061;-51
2022/03/30 07:54:15;;;;;;;25.10;13.52;;;;;;;13.46;65.16;98637.75;5030626;28;20061;-51
2022/03/30 07:56:59;;;;;;;21.52;12.13;;;;;;;13.64;63.63;98634.06;5028539;28;20053;-50
2022/03/30 07:59:43;;;;;;;22.90;11.75;;;;;;;13.25;60.49;98637.13;5027887;28;20049;-51
2022/03/30 08:02:28;;;;;;;21.00;11.70;;;;;;;13.55;61.16;98634.59;5030338;28;20119;-51
2022/03/30 08:05:14;;;;;;;26.20;12.38;;;;;;;13.51;61.15;98640.97;5029014;28;20045;-51
2022/03/30 08:08:00;;;;;;;22.50;11.63;;;;;;;13.75;55.84;98638.75;5028384;28;20057;-50
2022/03/30 08:10:44;;;;;;;19.92;10.88;;;;;;;14.30;57.60;98632.06;5030550;28;20053;-51
2022/03/30 08:13:29;;;;;;;28.17;14.25;;;;;;;14.47;55.93;98627.53;5030979;28;20045;-50
2022/03/30 08:16:13;;;;;;;23.25;14.63;;;;;;;14.96;53.66;98639.56;5030908;28;20112;-51
2022/03/30 08:18:58;;;;;;;24.35;12.65;;;;;;;15.10;54.10;98630.78;5030045;28;20048;-51
2022/03/30 08:24:46;;;;;;;22.20;9.65;;;;;;;15.06;50.85;98631.94;5029828;28;20045;-51
2022/03/30 08:27:31;;;;;;;17.33;8.93;;;;;;;14.98;48.02;98634.16;5027840;28;20045;-51
2022/03/30 08:30:17;;;;;;;18.52;9.13;;;;;;;14.55;50.68;98637.63;5029633;28;20053;-51
2022/03/30 08:33:03;;;;;;;18.13;8.98;;;;;;;14.81;50.42;98622.03;5029418;28;20038;-51
2022/03/30 08:35:48;;;;;;;19.45;9.18;;;;;;;14.09;49.68;98626.28;5029728;28;20053;-51
2022/03/30 08:38:32;;;;;;;19.23;8.73;;;;;;;14.38;50.07;98633.31;5029637;28;20053;-51
2022/03/30 08:41:16;;;;;;;18.58;8.45;;;;;;;14.41;47.28;98621.78;5029848;28;20041;-51
2022/03/30 08:44:01;;;;;;;11.40;6.55;;;;;;;14.77;47.85;98631.91;5029672;28;20095;-50
2022/03/30 08:46:46;;;;;;;14.68;6.03;;;;;;;14.87;46.79;98621.66;5029193;28;20053;-51
2022/03/30 08:49:33;;;;;;;16.02;5.35;;;;;;;15.05;44.89;98611.78;5029148;28;20396;-51
2022/03/30 08:52:18;;;;;;;14.70;7.50;;;;;;;15.28;44.32;98612.97;5028718;28;20053;-52
2022/03/30 08:55:03;;;;;;;21.02;7.35;;;;;;;15.48;44.84;98607.28;5029836;28;20064;-51
2022/03/30 08:57:48;;;;;;;13.95;6.65;;;;;;;15.75;45.36;98609.94;5028717;28;20049;-51
2022/03/30 09:00:34;;;;;;;17.02;6.68;;;;;;;15.86;43.61;98610.09;5028215;28;20091;-51
2022/03/30 09:03:19;;;;;;;15.50;6.80;;;;;;;15.88;43.17;98605.56;5024541;28;20045;-51
2022/03/30 09:06:03;;;;;;;12.90;6.70;;;;;;;15.78;43.56;98599.19;5026881;28;20065;-51
2022/03/30 09:08:48;;;;;;;13.65;6.82;;;;;;;15.99;42.93;98599.59;5027277;28;20637;-51
2022/03/30 09:11:41;;;;;;;16.98;8.02;;;;;;;16.07;42.84;98594.63;5027212;28;20038;-51
2022/03/30 09:14:32;;;;;;;18.13;8.30;;;;;;;15.00;42.16;98596.22;5028790;28;20072;-51
2022/03/30 09:17:16;;;;;;;15.73;8.55;;;;;;;14.91;45.50;98595.00;5029470;28;20404;-51
2022/03/30 09:20:32;;;;;;;16.63;7.85;;;;;;;15.64;43.63;98583.38;5029469;28;20049;-51
2022/03/30 09:23:17;;;;;;;15.70;7.95;;;;;;;16.12;43.78;98584.63;5028359;28;20049;-51
2022/03/30 09:26:02;;;;;;;17.27;8.18;;;;;;;16.19;43.02;98581.56;5029261;28;20450;-51
2022/03/30 09:28:47;;;;;;;16.40;7.47;;;;;;;16.55;41.66;98576.41;5029298;28;20150;-50
2022/03/30 09:31:31;;;;;;;15.70;7.40;;;;;;;17.01;42.62;98573.22;5029130;28;20049;-50
2022/03/30 09:34:17;;;;;;;17.02;7.28;;;;;;;17.29;41.80;98582.69;5029700;28;20127;-51
2022/03/30 09:37:09;;;;;;;17.52;7.78;;;;;;;16.76;40.68;98570.59;5029886;28;20053;-51
2022/03/30 09:39:54;;;;;;;15.23;6.78;;;;;;;17.29;42.09;98571.25;5028769;28;20049;-51
2022/03/30 09:42:39;;;;;;;13.95;7.85;;;;;;;16.80;40.63;98570.28;5028887;28;20053;-50
2022/03/30 09:45:29;;;;;;;14.90;7.07;;;;;;;17.40;39.85;98559.88;5029202;28;20446;-52
2022/03/30 09:48:15;;;;;;;12.20;5.97;;;;;;;17.53;39.31;98558.88;5026755;28;20049;-52
2022/03/30 09:51:02;;;;;;;18.90;8.13;;;;;;;17.59;38.64;98554.09;5028975;28;20053;-51
2022/03/30 09:53:48;;;;;;;14.63;6.93;;;;;;;17.80;39.62;98551.69;5027185;28;20506;-50
2022/03/30 09:56:33;;;;;;;16.92;6.93;;;;;;;16.76;37.93;98525.66;5027894;28;20049;-51
2022/03/30 09:59:19;;;;;;;14.90;6.93;;;;;;;17.45;39.16;98547.16;5028779;28;20045;-51
2022/03/30 10:02:06;;;;;;;33.65;25.95;;;;;;;17.05;39.04;98548.22;5029238;28;20048;-51
2022/03/30 10:04:51;;;;;;;53.72;34.70;;;;;;;17.20;38.91;98550.75;5028055;28;20053;-51
2022/03/30 10:07:35;;;;;;;18.08;8.90;;;;;;;15.85;40.62;98544.19;5028145;28;20069;-51
2022/03/30 10:10:20;;;;;;;16.05;7.07;;;;;;;16.97;38.94;98547.09;5029145;28;20041;-51
2022/03/30 10:13:05;;;;;;;19.88;10.77;;;;;;;16.43;39.38;98539.41;5029025;28;20140;-50
2022/03/30 10:15:52;;;;;;;11.68;6.03;;;;;;;16.01;39.40;98542.22;5023006;28;20049;-51
2022/03/30 10:18:37;;;;;;;11.70;5.85;;;;;;;15.75;40.44;98535.19;5026964;28;20041;-51
2022/03/30 10:21:27;;;;;;;16.80;5.97;;;;;;;15.14;41.05;98538.22;5026968;28;20060;-51
2022/03/30 10:24:39;;;;;;;16.73;6.82;;;;;;;15.06;41.55;98542.28;5026138;28;20049;-50
2022/03/30 10:27:43;;;;;;;18.98;7.00;;;;;;;15.66;40.84;98539.25;5026032;28;20057;-51
2022/03/30 10:30:30;;;;;;;14.73;8.48;;;;;;;15.43;41.05;98536.31;5027641;28;20085;-52
2022/03/30 10:33:28;;;;;;;23.17;14.10;;;;;;;15.27;40.59;98540.88;5028022;28;20041;-52
2022/03/30 10:36:34;;;;;;;51.22;35.50;;;;;;;14.93;40.80;98531.66;5026430;28;20288;-51
2022/03/30 10:39:27;;;;;;;14.50;8.18;;;;;;;14.94;40.31;98530.69;5026189;28;20049;-51
2022/03/30 10:42:12;;;;;;;10.38;6.03;;;;;;;14.70;41.65;98530.47;5026839;28;20076;-52
2022/03/30 10:45:01;;;;;;;15.10;5.90;;;;;;;14.97;41.59;98530.50;5028651;28;20555;-53
2022/03/30 10:48:08;;;;;;;13.93;6.53;;;;;;;15.28;42.37;98528.56;5025276;28;20067;-52
2022/03/30 10:51:08;;;;;;;17.42;6.85;;;;;;;15.64;39.45;98523.53;5027952;28;20049;-51
2022/03/30 10:53:52;;;;;;;11.50;5.25;;;;;;;15.51;39.71;98520.00;5029194;28;20712;-51
2022/03/30 10:56:37;;;;;;;11.52;5.63;;;;;;;14.44;40.81;98517.06;5025759;28;20804;-51
2022/03/30 10:59:21;;;;;;;10.85;6.38;;;;;;;15.26;40.78;98520.75;5029115;28;20049;-52
2022/03/30 11:02:12;;;;;;;20.25;8.00;;;;;;;15.00;40.64;98518.94;5032726;28;20049;-52
2022/03/30 11:05:09;;;;;;;16.55;7.07;;;;;;;15.46;39.98;98513.31;5032547;28;20041;-52
2022/03/30 11:07:54;;;;;;;17.48;8.40;;;;;;;15.48;39.82;98517.56;5031832;28;20049;-52
2022/03/30 11:10:48;;;;;;;14.68;7.30;;;;;;;14.05;40.31;98515.06;5032098;28;20041;-51
2022/03/30 11:13:33;;;;;;;13.40;7.80;;;;;;;14.89;40.43;98507.28;5030147;28;20050;-51
2022/03/30 11:16:18;;;;;;;11.43;6.53;;;;;;;15.56;40.49;98507.34;5029984;28;20057;-51
2022/03/30 11:19:04;;;;;;;14.63;6.80;;;;;;;15.85;39.92;98517.78;5029886;28;20057;-52
2022/03/30 11:21:54;;;;;;;10.30;6.10;;;;;;;16.07;39.00;98502.19;5029979;28;20050;-51
2022/03/30 11:24:44;;;;;;;22.25;11.48;;;;;;;16.08;38.28;98503.88;5031015;28;20053;-51
2022/03/30 11:27:29;;;;;;;14.57;6.72;;;;;;;16.20;37.67;98501.34;5027887;28;20058;-51
2022/03/30 11:30:13;;;;;;;28.92;20.10;;;;;;;16.63;37.52;98495.72;5032062;28;20052;-51
2022/03/30 11:33:04;;;;;;;12.18;6.70;;;;;;;16.42;37.28;98485.72;5027974;28;20057;-52
2022/03/30 11:35:49;;;;;;;11.90;5.47;;;;;;;16.85;37.26;98485.34;5027992;28;20413;-51
2022/03/30 11:38:40;;;;;;;10.05;5.47;;;;;;;17.22;37.65;98480.03;5028243;28;20053;-51
2022/03/30 11:41:25;;;;;;;16.60;6.55;;;;;;;17.41;36.93;98480.38;5027944;28;20042;-52
2022/03/30 11:47:19;;;;;;;12.65;6.10;;;;;;;17.19;35.40;98473.19;5026399;28;20053;-51
2022/03/30 11:50:04;;;;;;;15.00;8.43;;;;;;;17.34;34.74;98473.00;5027338;28;20065;-51
2022/03/30 11:52:56;;;;;;;14.40;5.93;;;;;;;16.69;34.94;98464.41;5026191;28;20046;-51
2022/03/30 11:55:47;;;;;;;15.55;8.55;;;;;;;16.72;35.71;98466.00;5026602;28;20481;-51
2022/03/30 11:58:41;;;;;;;20.30;11.05;;;;;;;16.98;35.75;98462.34;5026750;28;20049;-51
2022/03/30 12:01:26;;;;;;;11.93;6.75;;;;;;;17.09;35.03;98456.28;5025091;28;20049;-52
2022/03/30 12:04:13;;;;;;;12.57;6.07;;;;;;;16.27;35.21;98460.34;5026733;28;20391;-51
2022/03/30 12:06:57;;;;;;;9.50;5.60;;;;;;;16.28;35.28;98454.97;5025804;28;20112;-51
2022/03/30 12:09:50;;;;;;;9.05;4.82;;;;;;;16.20;35.49;98451.16;5026484;28;20045;-51
2022/03/30 12:12:39;;;;;;;14.60;5.47;;;;;;;16.50;35.34;98445.53;5025239;28;20057;-52
2022/03/30 12:15:24;;;;;;;11.32;4.90;;;;;;;16.57;35.41;98434.44;5025445;28;20045;-51
2022/03/30 12:18:09;;;;;;;11.90;5.65;;;;;;;16.20;34.69;98433.53;5024792;28;20740;-51
2022/03/30 12:20:53;;;;;;;11.07;4.60;;;;;;;16.44;35.59;98448.59;5025127;28;20050;-51
2022/03/30 12:23:49;;;;;;;15.95;5.22;;;;;;;16.36;35.33;98450.00;5024256;28;20037;-51
2022/03/30 12:26:34;;;;;;;9.75;4.90;;;;;;;16.40;35.70;98441.84;5021022;28;20080;-51
2022/03/30 12:29:20;;;;;;;8.80;4.35;;;;;;;16.20;35.41;98448.53;5024949;28;20056;-51
2022/03/30 12:32:05;;;;;;;13.32;5.60;;;;;;;16.36;35.23;98438.59;5026021;28;20052;-51
2022/03/30 12:35:05;;;;;;;13.43;6.35;;;;;;;16.01;35.47;98431.31;5026662;28;20108;-52
2022/03/30 12:38:04;;;;;;;12.02;5.93;;;;;;;15.46;36.20;98428.91;5025060;28;21095;-51
2022/03/30 12:40:53;;;;;;;10.25;5.00;;;;;;;15.75;35.43;98430.44;5024579;28;20195;-51
2022/03/30 12:43:42;;;;;;;9.23;4.80;;;;;;;15.94;36.61;98421.28;5025086;28;20052;-51
2022/03/30 12:46:31;;;;;;;16.15;8.13;;;;;;;16.01;37.35;98418.09;5025785;28;20614;-51
2022/03/30 12:49:16;;;;;;;9.85;5.88;;;;;;;16.07;36.77;98419.47;5027178;28;20123;-51
2022/03/30 12:52:07;;;;;;;16.13;6.47;;;;;;;15.99;35.88;98408.59;5027101;28;20164;-51
2022/03/30 12:54:52;;;;;;;16.02;6.15;;;;;;;15.56;36.29;98409.69;5027779;28;20037;-51
2022/03/30 12:57:36;;;;;;;13.93;5.95;;;;;;;15.31;37.25;98410.50;5025466;28;20113;-51